Etusivu
METAR-TAF:

METAR-TAF

Lentoasemat :

Svolvær, Norja

Svolværin lentoasema

Leveyspiiri: 68-15N, Pituuspiiri: 014-40E, korkeus merenpinnasta: 0 m

Tämänhetkinen sää

Tämä raportti tehtiin 4 tuntia ja 4 minuuttia sitten, kello 19.50 UTC
Tuuli 17 kn idästä
Lämpötila -2°C
Kosteus 59%
Ilmanpaine 998 hPa
Näkyvyys 10 km tai enemmän
ei pilviä alle 1500 m:ssä eikä cumulonimbus-pilviä

METAR: ENSH 171950Z 09017KT CAVOK M02/M09 Q0998 RMK WIND 150FT 06016KT

Aika: 00:54 (23:54 UTC)

Sääennuste

Tämä raportti tehtiin 6 tuntia ja 54 minuuttia sitten, kello 17.00 UTC
Ennuste voimassa 17. päivästä klo 18 UTC - 17. päivään klo 21 UTC
Tuuli 12 kn idästä
Näkyvyys 10 km tai enemmän
ei pilviä alle 1500 m:ssä eikä cumulonimbus-pilviä
Todennäköisyys 30% :
Ajoittain
17. päivästä klo 18 UTC - 17. päivään klo 21 UTC
Tuuli 15 kn kaakosta puuskistuen 25 kn:hen

TAF: ENSH 171700Z 1718/1721 10012KT CAVOK PROB30 TEMPO 1718/1721 14015G25KT

Säähavainnot ja -ennusteet yli 4000 lentoasemalta (METAR- ja TAF-raportit).

Käytössä olevat sääasemat on merkitty karttaan keltaisilla ja punaisilla pisteillä.

Aseta hiiri pisteen päälle nähdäksesi sääaseman nimen.

Klikkaa sitten nähdäksesi säähavainnot ja -ennusteet.

Kartan vaihtaminen: klikkaa mustalla rastilla varustettuja vihreitä pisteitä, niin voit zoomata sisään; viivalla varustettua vihreää pistettä, niin voit zoomata ulos tai vihreitä nuolia, niin pääset viereisille kartoille.


METAR-TAF: